sensor_id;sensor_type;location;lat;lon;timestamp;P1;durP1;ratioP1;P2;durP2;ratioP2
10191;SDS011;17580;50.850;4.504;2023-08-24T00:01:37;3.83;;;3.53;;
10191;SDS011;17580;50.850;4.504;2023-08-24T00:04:04;3.07;;;2.87;;
10191;SDS011;17580;50.850;4.504;2023-08-24T00:06:32;3.23;;;3.00;;
10191;SDS011;17580;50.850;4.504;2023-08-24T00:08:59;5.50;;;3.13;;
10191;SDS011;17580;50.850;4.504;2023-08-24T00:11:29;2.97;;;2.77;;
10191;SDS011;17580;50.850;4.504;2023-08-24T00:13:56;3.53;;;3.23;;
10191;SDS011;17580;50.850;4.504;2023-08-24T00:16:23;3.90;;;3.50;;
10191;SDS011;17580;50.850;4.504;2023-08-24T00:18:50;3.10;;;2.97;;
10191;SDS011;17580;50.850;4.504;2023-08-24T00:21:17;3.63;;;3.33;;
10191;SDS011;17580;50.850;4.504;2023-08-24T00:23:47;3.43;;;3.07;;
10191;SDS011;17580;50.850;4.504;2023-08-24T00:26:15;3.03;;;2.77;;
10191;SDS011;17580;50.850;4.504;2023-08-24T00:28:44;5.43;;;3.70;;
10191;SDS011;17580;50.850;4.504;2023-08-24T00:31:11;4.97;;;4.03;;
10191;SDS011;17580;50.850;4.504;2023-08-24T00:33:38;4.13;;;3.87;;
10191;SDS011;17580;50.850;4.504;2023-08-24T00:36:06;3.83;;;3.50;;
10191;SDS011;17580;50.850;4.504;2023-08-24T00:38:33;5.40;;;4.07;;
10191;SDS011;17580;50.850;4.504;2023-08-24T00:41:00;4.57;;;3.67;;
10191;SDS011;17580;50.850;4.504;2023-08-24T00:43:27;4.57;;;3.90;;
10191;SDS011;17580;50.850;4.504;2023-08-24T00:45:56;4.20;;;3.90;;
10191;SDS011;17580;50.850;4.504;2023-08-24T00:48:25;4.70;;;4.17;;
10191;SDS011;17580;50.850;4.504;2023-08-24T00:50:54;3.90;;;3.50;;
10191;SDS011;17580;50.850;4.504;2023-08-24T00:53:21;5.83;;;4.03;;
10191;SDS011;17580;50.850;4.504;2023-08-24T00:55:51;5.00;;;3.73;;
10191;SDS011;17580;50.850;4.504;2023-08-24T00:58:18;5.00;;;4.60;;
10191;SDS011;17580;50.850;4.504;2023-08-24T01:00:46;3.77;;;3.47;;
10191;SDS011;17580;50.850;4.504;2023-08-24T01:03:14;4.03;;;3.63;;
10191;SDS011;17580;50.850;4.504;2023-08-24T01:05:41;6.43;;;3.57;;
10191;SDS011;17580;50.850;4.504;2023-08-24T01:08:09;4.30;;;3.17;;
10191;SDS011;17580;50.850;4.504;2023-08-24T01:10:38;5.30;;;3.90;;
10191;SDS011;17580;50.850;4.504;2023-08-24T01:13:12;3.73;;;3.10;;
10191;SDS011;17580;50.850;4.504;2023-08-24T01:15:48;5.93;;;3.47;;
10191;SDS011;17580;50.850;4.504;2023-08-24T01:18:26;3.83;;;3.53;;
10191;SDS011;17580;50.850;4.504;2023-08-24T01:20:54;3.77;;;3.47;;
10191;SDS011;17580;50.850;4.504;2023-08-24T01:23:26;3.30;;;3.10;;
10191;SDS011;17580;50.850;4.504;2023-08-24T01:26:11;4.10;;;3.80;;
10191;SDS011;17580;50.850;4.504;2023-08-24T01:28:40;3.73;;;3.50;;
10191;SDS011;17580;50.850;4.504;2023-08-24T01:31:09;3.77;;;3.50;;
10191;SDS011;17580;50.850;4.504;2023-08-24T01:33:36;3.90;;;3.40;;
10191;SDS011;17580;50.850;4.504;2023-08-24T01:36:06;7.37;;;3.67;;
10191;SDS011;17580;50.850;4.504;2023-08-24T01:38:34;6.87;;;3.63;;
10191;SDS011;17580;50.850;4.504;2023-08-24T01:41:04;3.90;;;3.50;;
10191;SDS011;17580;50.850;4.504;2023-08-24T01:43:39;3.87;;;3.57;;
10191;SDS011;17580;50.850;4.504;2023-08-24T01:46:09;6.40;;;4.00;;
10191;SDS011;17580;50.850;4.504;2023-08-24T01:48:40;4.20;;;3.80;;
10191;SDS011;17580;50.850;4.504;2023-08-24T01:51:09;5.00;;;3.90;;
10191;SDS011;17580;50.850;4.504;2023-08-24T01:53:37;5.30;;;4.17;;
10191;SDS011;17580;50.850;4.504;2023-08-24T01:56:08;4.40;;;4.00;;
10191;SDS011;17580;50.850;4.504;2023-08-24T01:58:40;5.50;;;4.17;;
10191;SDS011;17580;50.850;4.504;2023-08-24T02:01:13;5.50;;;4.50;;
10191;SDS011;17580;50.850;4.504;2023-08-24T02:03:40;4.83;;;4.43;;
10191;SDS011;17580;50.850;4.504;2023-08-24T02:06:07;5.50;;;5.00;;
10191;SDS011;17580;50.850;4.504;2023-08-24T02:08:35;6.97;;;4.67;;
10191;SDS011;17580;50.850;4.504;2023-08-24T02:11:02;9.00;;;5.77;;
10191;SDS011;17580;50.850;4.504;2023-08-24T02:13:29;6.13;;;4.53;;
10191;SDS011;17580;50.850;4.504;2023-08-24T02:16:04;5.37;;;4.80;;
10191;SDS011;17580;50.850;4.504;2023-08-24T02:18:35;7.03;;;4.80;;
10191;SDS011;17580;50.850;4.504;2023-08-24T02:21:06;7.57;;;5.47;;
10191;SDS011;17580;50.850;4.504;2023-08-24T02:23:33;4.87;;;4.47;;
10191;SDS011;17580;50.850;4.504;2023-08-24T02:26:01;6.37;;;5.10;;
10191;SDS011;17580;50.850;4.504;2023-08-24T02:28:30;5.90;;;5.40;;
10191;SDS011;17580;50.850;4.504;2023-08-24T02:30:59;6.43;;;5.73;;
10191;SDS011;17580;50.850;4.504;2023-08-24T02:33:28;6.10;;;5.53;;
10191;SDS011;17580;50.850;4.504;2023-08-24T02:35:56;6.50;;;5.90;;
10191;SDS011;17580;50.850;4.504;2023-08-24T02:38:23;7.47;;;5.90;;
10191;SDS011;17580;50.850;4.504;2023-08-24T02:40:59;7.30;;;6.00;;
10191;SDS011;17580;50.850;4.504;2023-08-24T02:43:27;7.60;;;6.77;;
10191;SDS011;17580;50.850;4.504;2023-08-24T02:45:58;9.57;;;6.40;;
10191;SDS011;17580;50.850;4.504;2023-08-24T02:48:26;6.07;;;5.47;;
10191;SDS011;17580;50.850;4.504;2023-08-24T02:50:56;6.90;;;5.70;;
10191;SDS011;17580;50.850;4.504;2023-08-24T02:53:23;7.43;;;6.70;;
10191;SDS011;17580;50.850;4.504;2023-08-24T02:55:51;7.90;;;6.60;;
10191;SDS011;17580;50.850;4.504;2023-08-24T02:58:18;6.60;;;5.90;;
10191;SDS011;17580;50.850;4.504;2023-08-24T03:00:45;7.60;;;5.03;;
10191;SDS011;17580;50.850;4.504;2023-08-24T03:03:12;6.50;;;5.90;;
10191;SDS011;17580;50.850;4.504;2023-08-24T03:05:41;5.27;;;4.77;;
10191;SDS011;17580;50.850;4.504;2023-08-24T03:08:17;9.13;;;5.20;;
10191;SDS011;17580;50.850;4.504;2023-08-24T03:10:44;5.90;;;4.47;;
10191;SDS011;17580;50.850;4.504;2023-08-24T03:13:13;9.60;;;6.00;;
10191;SDS011;17580;50.850;4.504;2023-08-24T03:15:40;5.33;;;4.57;;
10191;SDS011;17580;50.850;4.504;2023-08-24T03:18:11;5.67;;;5.17;;
10191;SDS011;17580;50.850;4.504;2023-08-24T03:20:38;5.00;;;4.60;;
10191;SDS011;17580;50.850;4.504;2023-08-24T03:23:07;4.63;;;4.23;;
10191;SDS011;17580;50.850;4.504;2023-08-24T03:25:35;7.23;;;4.70;;
10191;SDS011;17580;50.850;4.504;2023-08-24T03:28:05;5.03;;;4.47;;
10191;SDS011;17580;50.850;4.504;2023-08-24T03:30:33;5.63;;;4.87;;
10191;SDS011;17580;50.850;4.504;2023-08-24T03:33:01;5.77;;;5.13;;
10191;SDS011;17580;50.850;4.504;2023-08-24T03:35:28;6.40;;;5.77;;
10191;SDS011;17580;50.850;4.504;2023-08-24T03:37:58;5.60;;;5.07;;
10191;SDS011;17580;50.850;4.504;2023-08-24T03:40:25;6.53;;;4.40;;
10191;SDS011;17580;50.850;4.504;2023-08-24T03:42:52;5.40;;;4.30;;
10191;SDS011;17580;50.850;4.504;2023-08-24T03:45:19;6.80;;;4.60;;
10191;SDS011;17580;50.850;4.504;2023-08-24T03:47:46;5.17;;;4.27;;
10191;SDS011;17580;50.850;4.504;2023-08-24T03:50:13;4.80;;;4.40;;
10191;SDS011;17580;50.850;4.504;2023-08-24T03:52:40;4.97;;;4.57;;
10191;SDS011;17580;50.850;4.504;2023-08-24T03:55:09;6.27;;;5.27;;
10191;SDS011;17580;50.850;4.504;2023-08-24T03:57:36;6.77;;;4.83;;
10191;SDS011;17580;50.850;4.504;2023-08-24T04:00:04;5.47;;;4.97;;
10191;SDS011;17580;50.850;4.504;2023-08-24T04:02:36;5.03;;;4.67;;
10191;SDS011;17580;50.850;4.504;2023-08-24T04:05:03;6.00;;;5.50;;
10191;SDS011;17580;50.850;4.504;2023-08-24T04:07:30;7.17;;;5.23;;
10191;SDS011;17580;50.850;4.504;2023-08-24T04:09:58;5.43;;;4.37;;
10191;SDS011;17580;50.850;4.504;2023-08-24T04:12:26;5.17;;;4.73;;
10191;SDS011;17580;50.850;4.504;2023-08-24T04:14:54;5.20;;;4.43;;
10191;SDS011;17580;50.850;4.504;2023-08-24T04:17:22;5.13;;;4.10;;
10191;SDS011;17580;50.850;4.504;2023-08-24T04:19:49;4.17;;;3.87;;
10191;SDS011;17580;50.850;4.504;2023-08-24T04:22:17;5.00;;;4.50;;
10191;SDS011;17580;50.850;4.504;2023-08-24T04:24:44;4.60;;;4.20;;
10191;SDS011;17580;50.850;4.504;2023-08-24T04:27:11;6.37;;;4.30;;
10191;SDS011;17580;50.850;4.504;2023-08-24T04:29:40;4.90;;;3.97;;
10191;SDS011;17580;50.850;4.504;2023-08-24T04:32:07;4.87;;;3.90;;
10191;SDS011;17580;50.850;4.504;2023-08-24T04:34:34;4.83;;;4.47;;
10191;SDS011;17580;50.850;4.504;2023-08-24T04:37:01;4.73;;;4.30;;
10191;SDS011;17580;50.850;4.504;2023-08-24T04:39:28;4.60;;;4.20;;
10191;SDS011;17580;50.850;4.504;2023-08-24T04:41:55;6.47;;;4.17;;
10191;SDS011;17580;50.850;4.504;2023-08-24T04:44:22;5.00;;;4.50;;
10191;SDS011;17580;50.850;4.504;2023-08-24T04:46:51;4.03;;;3.73;;
10191;SDS011;17580;50.850;4.504;2023-08-24T04:49:18;4.83;;;4.17;;
10191;SDS011;17580;50.850;4.504;2023-08-24T04:51:45;4.87;;;4.47;;
10191;SDS011;17580;50.850;4.504;2023-08-24T04:54:12;5.10;;;3.83;;
10191;SDS011;17580;50.850;4.504;2023-08-24T04:56:39;4.37;;;3.97;;
10191;SDS011;17580;50.850;4.504;2023-08-24T04:59:06;6.13;;;4.30;;
10191;SDS011;17580;50.850;4.504;2023-08-24T05:01:33;4.30;;;3.90;;
10191;SDS011;17580;50.850;4.504;2023-08-24T05:04:02;4.83;;;4.43;;
10191;SDS011;17580;50.850;4.504;2023-08-24T05:06:31;6.28;;;5.60;;
10191;SDS011;17580;50.850;4.504;2023-08-24T05:08:58;7.87;;;4.60;;
10191;SDS011;17580;50.850;4.504;2023-08-24T05:11:26;4.33;;;4.03;;
10191;SDS011;17580;50.850;4.504;2023-08-24T05:13:55;3.97;;;3.67;;
10191;SDS011;17580;50.850;4.504;2023-08-24T05:16:22;5.03;;;4.53;;
10191;SDS011;17580;50.850;4.504;2023-08-24T05:18:49;4.60;;;4.20;;
10191;SDS011;17580;50.850;4.504;2023-08-24T05:21:18;6.57;;;4.10;;
10191;SDS011;17580;50.850;4.504;2023-08-24T05:23:45;4.47;;;4.13;;
10191;SDS011;17580;50.850;4.504;2023-08-24T05:26:12;4.70;;;4.20;;
10191;SDS011;17580;50.850;4.504;2023-08-24T05:28:39;4.30;;;3.90;;
10191;SDS011;17580;50.850;4.504;2023-08-24T05:31:06;4.83;;;4.43;;
10191;SDS011;17580;50.850;4.504;2023-08-24T05:33:33;6.80;;;4.80;;
10191;SDS011;17580;50.850;4.504;2023-08-24T05:36:00;4.83;;;4.30;;
10191;SDS011;17580;50.850;4.504;2023-08-24T05:38:28;4.27;;;3.87;;
10191;SDS011;17580;50.850;4.504;2023-08-24T05:40:55;4.17;;;3.60;;
10191;SDS011;17580;50.850;4.504;2023-08-24T05:43:22;4.17;;;3.87;;
10191;SDS011;17580;50.850;4.504;2023-08-24T05:45:49;4.30;;;4.00;;
10191;SDS011;17580;50.850;4.504;2023-08-24T05:48:16;5.07;;;4.67;;
10191;SDS011;17580;50.850;4.504;2023-08-24T05:50:43;4.23;;;3.93;;
10191;SDS011;17580;50.850;4.504;2023-08-24T05:53:11;6.13;;;4.47;;
10191;SDS011;17580;50.850;4.504;2023-08-24T05:55:40;7.40;;;4.80;;
10191;SDS011;17580;50.850;4.504;2023-08-24T05:58:07;8.70;;;4.70;;
10191;SDS011;17580;50.850;4.504;2023-08-24T06:00:35;5.07;;;4.40;;
10191;SDS011;17580;50.850;4.504;2023-08-24T06:03:02;6.23;;;4.17;;
10191;SDS011;17580;50.850;4.504;2023-08-24T06:05:29;7.87;;;5.03;;
10191;SDS011;17580;50.850;4.504;2023-08-24T06:07:57;4.90;;;4.17;;
10191;SDS011;17580;50.850;4.504;2023-08-24T06:10:24;4.67;;;4.27;;
10191;SDS011;17580;50.850;4.504;2023-08-24T06:12:53;4.67;;;4.17;;
10191;SDS011;17580;50.850;4.504;2023-08-24T06:15:20;5.47;;;3.73;;
10191;SDS011;17580;50.850;4.504;2023-08-24T06:17:49;5.27;;;4.37;;
10191;SDS011;17580;50.850;4.504;2023-08-24T06:20:16;4.23;;;3.53;;
10191;SDS011;17580;50.850;4.504;2023-08-24T06:22:44;4.10;;;3.77;;
10191;SDS011;17580;50.850;4.504;2023-08-24T06:25:11;3.90;;;3.57;;
10191;SDS011;17580;50.850;4.504;2023-08-24T06:27:38;5.17;;;3.50;;
10191;SDS011;17580;50.850;4.504;2023-08-24T06:30:07;3.83;;;3.53;;
10191;SDS011;17580;50.850;4.504;2023-08-24T06:32:34;3.33;;;3.13;;
10191;SDS011;17580;50.850;4.504;2023-08-24T06:35:02;3.83;;;3.40;;
10191;SDS011;17580;50.850;4.504;2023-08-24T06:37:31;4.47;;;3.27;;
10191;SDS011;17580;50.850;4.504;2023-08-24T06:39:58;5.43;;;3.60;;
10191;SDS011;17580;50.850;4.504;2023-08-24T06:42:25;5.90;;;3.00;;
10191;SDS011;17580;50.850;4.504;2023-08-24T06:44:52;3.47;;;3.17;;
10191;SDS011;17580;50.850;4.504;2023-08-24T06:47:20;3.63;;;3.43;;
10191;SDS011;17580;50.850;4.504;2023-08-24T06:49:47;3.13;;;2.90;;
10191;SDS011;17580;50.850;4.504;2023-08-24T06:52:15;3.70;;;3.40;;
10191;SDS011;17580;50.850;4.504;2023-08-24T06:54:42;4.70;;;3.20;;
10191;SDS011;17580;50.850;4.504;2023-08-24T06:57:09;3.70;;;3.00;;
10191;SDS011;17580;50.850;4.504;2023-08-24T06:59:36;3.17;;;3.00;;
10191;SDS011;17580;50.850;4.504;2023-08-24T07:02:03;3.10;;;2.90;;
10191;SDS011;17580;50.850;4.504;2023-08-24T07:04:32;3.50;;;3.20;;
10191;SDS011;17580;50.850;4.504;2023-08-24T07:06:59;3.30;;;3.10;;
10191;SDS011;17580;50.850;4.504;2023-08-24T07:09:27;3.70;;;3.40;;
10191;SDS011;17580;50.850;4.504;2023-08-24T07:11:54;4.10;;;3.70;;
10191;SDS011;17580;50.850;4.504;2023-08-24T07:14:21;3.90;;;3.30;;
10191;SDS011;17580;50.850;4.504;2023-08-24T07:16:48;3.40;;;3.10;;
10191;SDS011;17580;50.850;4.504;2023-08-24T07:19:15;4.07;;;3.53;;
10191;SDS011;17580;50.850;4.504;2023-08-24T07:21:43;3.40;;;2.90;;
10191;SDS011;17580;50.850;4.504;2023-08-24T07:24:10;3.13;;;2.90;;
10191;SDS011;17580;50.850;4.504;2023-08-24T07:26:37;2.30;;;2.20;;
10191;SDS011;17580;50.850;4.504;2023-08-24T07:29:06;3.33;;;2.33;;
10191;SDS011;17580;50.850;4.504;2023-08-24T07:31:34;3.23;;;3.03;;
10191;SDS011;17580;50.850;4.504;2023-08-24T07:34:02;3.90;;;3.60;;
10191;SDS011;17580;50.850;4.504;2023-08-24T07:36:29;3.10;;;2.87;;
10191;SDS011;17580;50.850;4.504;2023-08-24T07:38:58;3.20;;;2.90;;
10191;SDS011;17580;50.850;4.504;2023-08-24T07:41:25;3.17;;;2.97;;
10191;SDS011;17580;50.850;4.504;2023-08-24T07:43:52;4.63;;;3.53;;
10191;SDS011;17580;50.850;4.504;2023-08-24T07:46:19;4.73;;;3.63;;
10191;SDS011;17580;50.850;4.504;2023-08-24T07:48:46;3.27;;;2.97;;
10191;SDS011;17580;50.850;4.504;2023-08-24T07:51:16;3.17;;;2.87;;
10191;SDS011;17580;50.850;4.504;2023-08-24T07:53:43;3.80;;;3.50;;
10191;SDS011;17580;50.850;4.504;2023-08-24T07:56:12;4.47;;;3.57;;
10191;SDS011;17580;50.850;4.504;2023-08-24T07:58:39;3.07;;;2.87;;
10191;SDS011;17580;50.850;4.504;2023-08-24T08:01:06;7.57;;;3.80;;
10191;SDS011;17580;50.850;4.504;2023-08-24T08:03:33;3.00;;;2.80;;
10191;SDS011;17580;50.850;4.504;2023-08-24T08:06:00;7.97;;;2.93;;
10191;SDS011;17580;50.850;4.504;2023-08-24T08:08:28;6.73;;;3.10;;
10191;SDS011;17580;50.850;4.504;2023-08-24T08:10:59;3.47;;;3.17;;
10191;SDS011;17580;50.850;4.504;2023-08-24T08:13:28;3.23;;;2.67;;
10191;SDS011;17580;50.850;4.504;2023-08-24T08:16:00;2.77;;;2.57;;
10191;SDS011;17580;50.850;4.504;2023-08-24T08:18:28;2.90;;;2.70;;
10191;SDS011;17580;50.850;4.504;2023-08-24T08:20:55;3.53;;;2.83;;
10191;SDS011;17580;50.850;4.504;2023-08-24T08:23:22;2.97;;;2.70;;
10191;SDS011;17580;50.850;4.504;2023-08-24T08:25:49;3.80;;;2.80;;
10191;SDS011;17580;50.850;4.504;2023-08-24T08:28:16;4.60;;;2.83;;
10191;SDS011;17580;50.850;4.504;2023-08-24T08:30:45;3.83;;;3.30;;
10191;SDS011;17580;50.850;4.504;2023-08-24T08:33:15;4.00;;;3.63;;
10191;SDS011;17580;50.850;4.504;2023-08-24T08:35:42;3.23;;;2.93;;
10191;SDS011;17580;50.850;4.504;2023-08-24T08:38:09;3.43;;;3.13;;
10191;SDS011;17580;50.850;4.504;2023-08-24T08:40:36;4.27;;;3.10;;
10191;SDS011;17580;50.850;4.504;2023-08-24T08:43:05;5.30;;;3.17;;
10191;SDS011;17580;50.850;4.504;2023-08-24T08:45:33;6.17;;;3.30;;
10191;SDS011;17580;50.850;4.504;2023-08-24T08:48:02;6.37;;;3.30;;
10191;SDS011;17580;50.850;4.504;2023-08-24T08:50:31;3.30;;;3.00;;
10191;SDS011;17580;50.850;4.504;2023-08-24T08:53:00;3.47;;;3.23;;
10191;SDS011;17580;50.850;4.504;2023-08-24T08:55:27;5.43;;;3.40;;
10191;SDS011;17580;50.850;4.504;2023-08-24T08:57:55;17.47;;;3.57;;
10191;SDS011;17580;50.850;4.504;2023-08-24T09:00:24;3.33;;;3.03;;
10191;SDS011;17580;50.850;4.504;2023-08-24T09:02:53;2.93;;;2.73;;
10191;SDS011;17580;50.850;4.504;2023-08-24T09:05:21;5.20;;;3.60;;
10191;SDS011;17580;50.850;4.504;2023-08-24T09:07:51;3.50;;;3.20;;
10191;SDS011;17580;50.850;4.504;2023-08-24T09:10:21;7.67;;;3.70;;
10191;SDS011;17580;50.850;4.504;2023-08-24T09:12:48;4.03;;;3.43;;
10191;SDS011;17580;50.850;4.504;2023-08-24T09:15:21;4.23;;;3.50;;
10191;SDS011;17580;50.850;4.504;2023-08-24T09:17:50;3.20;;;3.00;;
10191;SDS011;17580;50.850;4.504;2023-08-24T09:20:17;3.83;;;3.33;;
10191;SDS011;17580;50.850;4.504;2023-08-24T09:22:46;3.90;;;3.07;;
10191;SDS011;17580;50.850;4.504;2023-08-24T09:25:13;2.93;;;2.73;;
10191;SDS011;17580;50.850;4.504;2023-08-24T09:27:40;3.70;;;3.40;;
10191;SDS011;17580;50.850;4.504;2023-08-24T09:30:07;4.97;;;3.20;;
10191;SDS011;17580;50.850;4.504;2023-08-24T09:32:35;3.00;;;2.80;;
10191;SDS011;17580;50.850;4.504;2023-08-24T09:35:02;4.50;;;3.20;;
10191;SDS011;17580;50.850;4.504;2023-08-24T09:37:31;5.10;;;3.33;;
10191;SDS011;17580;50.850;4.504;2023-08-24T09:40:04;4.07;;;3.43;;
10191;SDS011;17580;50.850;4.504;2023-08-24T09:42:37;6.47;;;4.10;;
10191;SDS011;17580;50.850;4.504;2023-08-24T09:45:06;4.37;;;3.97;;
10191;SDS011;17580;50.850;4.504;2023-08-24T09:47:35;8.77;;;4.30;;
10191;SDS011;17580;50.850;4.504;2023-08-24T09:50:02;6.30;;;4.43;;
10191;SDS011;17580;50.850;4.504;2023-08-24T09:52:31;7.20;;;4.83;;
10191;SDS011;17580;50.850;4.504;2023-08-24T09:54:59;5.03;;;4.40;;
10191;SDS011;17580;50.850;4.504;2023-08-24T09:57:32;7.17;;;5.10;;
10191;SDS011;17580;50.850;4.504;2023-08-24T10:00:04;7.13;;;4.53;;
10191;SDS011;17580;50.850;4.504;2023-08-24T10:02:36;4.33;;;3.97;;
10191;SDS011;17580;50.850;4.504;2023-08-24T10:05:07;5.93;;;4.17;;
10191;SDS011;17580;50.850;4.504;2023-08-24T10:07:36;5.47;;;3.93;;
10191;SDS011;17580;50.850;4.504;2023-08-24T10:10:07;7.10;;;4.73;;
10191;SDS011;17580;50.850;4.504;2023-08-24T10:12:39;4.27;;;3.97;;
10191;SDS011;17580;50.850;4.504;2023-08-24T10:15:12;5.03;;;4.37;;
10191;SDS011;17580;50.850;4.504;2023-08-24T10:17:40;7.03;;;4.00;;
10191;SDS011;17580;50.850;4.504;2023-08-24T10:20:07;4.90;;;4.30;;
10191;SDS011;17580;50.850;4.504;2023-08-24T10:22:37;5.03;;;3.97;;
10191;SDS011;17580;50.850;4.504;2023-08-24T10:25:08;5.97;;;4.40;;
10191;SDS011;17580;50.850;4.504;2023-08-24T10:27:35;3.90;;;3.60;;
10191;SDS011;17580;50.850;4.504;2023-08-24T10:30:08;5.67;;;4.27;;
10191;SDS011;17580;50.850;4.504;2023-08-24T10:32:37;3.70;;;3.40;;
10191;SDS011;17580;50.850;4.504;2023-08-24T10:35:06;3.83;;;3.53;;
10191;SDS011;17580;50.850;4.504;2023-08-24T10:37:34;5.57;;;4.33;;
10191;SDS011;17580;50.850;4.504;2023-08-24T10:40:01;4.13;;;3.60;;
10191;SDS011;17580;50.850;4.504;2023-08-24T10:42:34;5.03;;;3.83;;
10191;SDS011;17580;50.850;4.504;2023-08-24T10:45:11;4.40;;;3.90;;
10191;SDS011;17580;50.850;4.504;2023-08-24T10:47:43;5.93;;;4.10;;
10191;SDS011;17580;50.850;4.504;2023-08-24T10:50:12;6.60;;;4.40;;
10191;SDS011;17580;50.850;4.504;2023-08-24T10:52:40;4.97;;;4.40;;
10191;SDS011;17580;50.850;4.504;2023-08-24T10:55:23;4.43;;;4.03;;
10191;SDS011;17580;50.850;4.504;2023-08-24T10:57:57;5.50;;;3.90;;
10191;SDS011;17580;50.850;4.504;2023-08-24T11:00:28;5.23;;;4.37;;
10191;SDS011;17580;50.850;4.504;2023-08-24T11:02:56;4.03;;;3.73;;
10191;SDS011;17580;50.850;4.504;2023-08-24T11:05:24;4.80;;;4.40;;
10191;SDS011;17580;50.850;4.504;2023-08-24T11:07:55;7.13;;;4.87;;
10191;SDS011;17580;50.850;4.504;2023-08-24T11:10:25;5.20;;;4.43;;
10191;SDS011;17580;50.850;4.504;2023-08-24T11:13:08;5.77;;;4.70;;
10191;SDS011;17580;50.850;4.504;2023-08-24T11:15:40;5.27;;;4.77;;
10191;SDS011;17580;50.850;4.504;2023-08-24T11:18:19;6.53;;;4.97;;
10191;SDS011;17580;50.850;4.504;2023-08-24T11:20:49;6.00;;;4.50;;
10191;SDS011;17580;50.850;4.504;2023-08-24T11:23:17;5.67;;;5.07;;
10191;SDS011;17580;50.850;4.504;2023-08-24T11:25:45;6.57;;;5.27;;
10191;SDS011;17580;50.850;4.504;2023-08-24T11:28:17;4.97;;;4.57;;
10191;SDS011;17580;50.850;4.504;2023-08-24T11:30:46;6.73;;;5.07;;
10191;SDS011;17580;50.850;4.504;2023-08-24T11:33:13;8.57;;;4.27;;
10191;SDS011;17580;50.850;4.504;2023-08-24T11:35:41;5.07;;;4.50;;
10191;SDS011;17580;50.850;4.504;2023-08-24T11:38:10;6.10;;;4.10;;
10191;SDS011;17580;50.850;4.504;2023-08-24T11:40:37;5.47;;;4.50;;
10191;SDS011;17580;50.850;4.504;2023-08-24T11:43:05;5.53;;;5.00;;
10191;SDS011;17580;50.850;4.504;2023-08-24T11:45:33;5.13;;;4.63;;
10191;SDS011;17580;50.850;4.504;2023-08-24T11:48:04;5.07;;;4.40;;
10191;SDS011;17580;50.850;4.504;2023-08-24T11:50:32;6.33;;;4.60;;
10191;SDS011;17580;50.850;4.504;2023-08-24T11:53:00;7.17;;;4.63;;
10191;SDS011;17580;50.850;4.504;2023-08-24T11:55:28;6.30;;;4.87;;
10191;SDS011;17580;50.850;4.504;2023-08-24T11:57:55;5.13;;;4.20;;
10191;SDS011;17580;50.850;4.504;2023-08-24T12:00:22;5.37;;;4.30;;
10191;SDS011;17580;50.850;4.504;2023-08-24T12:02:50;4.70;;;4.30;;
10191;SDS011;17580;50.850;4.504;2023-08-24T12:05:22;4.73;;;4.10;;
10191;SDS011;17580;50.850;4.504;2023-08-24T12:07:50;4.50;;;4.10;;
10191;SDS011;17580;50.850;4.504;2023-08-24T12:10:18;4.07;;;3.63;;
10191;SDS011;17580;50.850;4.504;2023-08-24T12:12:46;4.07;;;3.80;;
10191;SDS011;17580;50.850;4.504;2023-08-24T12:15:17;6.73;;;4.00;;
10191;SDS011;17580;50.850;4.504;2023-08-24T12:17:45;3.83;;;3.53;;
10191;SDS011;17580;50.850;4.504;2023-08-24T12:20:21;4.67;;;3.53;;
10191;SDS011;17580;50.850;4.504;2023-08-24T12:22:49;5.43;;;3.43;;
10191;SDS011;17580;50.850;4.504;2023-08-24T12:25:23;5.30;;;4.77;;
10191;SDS011;17580;50.850;4.504;2023-08-24T12:27:51;5.23;;;4.73;;
10191;SDS011;17580;50.850;4.504;2023-08-24T12:30:19;5.57;;;4.10;;
10191;SDS011;17580;50.850;4.504;2023-08-24T12:32:47;4.63;;;4.23;;
10191;SDS011;17580;50.850;4.504;2023-08-24T12:35:15;4.83;;;4.10;;
10191;SDS011;17580;50.850;4.504;2023-08-24T12:37:44;4.67;;;4.27;;
10191;SDS011;17580;50.850;4.504;2023-08-24T12:40:12;5.50;;;4.93;;
10191;SDS011;17580;50.850;4.504;2023-08-24T12:42:40;4.80;;;4.40;;
10191;SDS011;17580;50.850;4.504;2023-08-24T12:45:07;5.33;;;4.87;;
10191;SDS011;17580;50.850;4.504;2023-08-24T12:47:34;7.07;;;5.70;;
10191;SDS011;17580;50.850;4.504;2023-08-24T12:50:04;4.97;;;4.50;;
10191;SDS011;17580;50.850;4.504;2023-08-24T12:52:32;5.10;;;4.03;;
10191;SDS011;17580;50.850;4.504;2023-08-24T12:55:01;5.87;;;4.80;;
10191;SDS011;17580;50.850;4.504;2023-08-24T12:57:29;4.40;;;4.00;;
10191;SDS011;17580;50.850;4.504;2023-08-24T12:59:56;3.93;;;3.63;;
10191;SDS011;17580;50.850;4.504;2023-08-24T13:02:24;4.43;;;3.60;;
10191;SDS011;17580;50.850;4.504;2023-08-24T13:04:51;5.27;;;3.97;;
10191;SDS011;17580;50.850;4.504;2023-08-24T13:07:18;4.13;;;3.60;;
10191;SDS011;17580;50.850;4.504;2023-08-24T13:09:45;5.10;;;4.17;;
10191;SDS011;17580;50.850;4.504;2023-08-24T13:12:13;6.00;;;4.00;;
10191;SDS011;17580;50.850;4.504;2023-08-24T13:14:40;3.73;;;3.47;;
10191;SDS011;17580;50.850;4.504;2023-08-24T13:17:07;6.43;;;3.83;;
10191;SDS011;17580;50.850;4.504;2023-08-24T13:19:34;6.27;;;3.80;;
10191;SDS011;17580;50.850;4.504;2023-08-24T13:22:01;5.10;;;4.30;;
10191;SDS011;17580;50.850;4.504;2023-08-24T13:24:27;4.80;;;3.40;;
10191;SDS011;17580;50.850;4.504;2023-08-24T13:26:55;5.67;;;3.70;;
10191;SDS011;17580;50.850;4.504;2023-08-24T13:29:24;3.90;;;3.50;;
10191;SDS011;17580;50.850;4.504;2023-08-24T13:31:51;3.87;;;3.57;;
10191;SDS011;17580;50.850;4.504;2023-08-24T13:34:18;5.93;;;3.33;;
10191;SDS011;17580;50.850;4.504;2023-08-24T13:36:45;5.93;;;3.60;;
10191;SDS011;17580;50.850;4.504;2023-08-24T13:39:12;4.37;;;3.70;;
10191;SDS011;17580;50.850;4.504;2023-08-24T13:41:39;4.27;;;3.20;;
10191;SDS011;17580;50.850;4.504;2023-08-24T13:44:07;4.10;;;3.00;;
10191;SDS011;17580;50.850;4.504;2023-08-24T13:46:35;3.10;;;2.80;;
10191;SDS011;17580;50.850;4.504;2023-08-24T13:49:02;6.47;;;3.40;;
10191;SDS011;17580;50.850;4.504;2023-08-24T13:51:29;6.13;;;3.30;;
10191;SDS011;17580;50.850;4.504;2023-08-24T13:53:56;4.00;;;2.90;;
10191;SDS011;17580;50.850;4.504;2023-08-24T13:56:23;3.10;;;2.80;;
10191;SDS011;17580;50.850;4.504;2023-08-24T13:58:50;3.60;;;3.30;;
10191;SDS011;17580;50.850;4.504;2023-08-24T14:01:18;7.20;;;3.23;;
10191;SDS011;17580;50.850;4.504;2023-08-24T14:03:46;5.13;;;3.00;;
10191;SDS011;17580;50.850;4.504;2023-08-24T14:06:14;2.80;;;2.60;;
10191;SDS011;17580;50.850;4.504;2023-08-24T14:08:41;2.97;;;2.50;;
10191;SDS011;17580;50.850;4.504;2023-08-24T14:11:10;4.97;;;3.10;;
10191;SDS011;17580;50.850;4.504;2023-08-24T14:13:37;2.70;;;2.50;;
10191;SDS011;17580;50.850;4.504;2023-08-24T14:16:04;3.10;;;2.70;;
10191;SDS011;17580;50.850;4.504;2023-08-24T14:18:31;2.77;;;2.53;;
10191;SDS011;17580;50.850;4.504;2023-08-24T14:21:02;3.90;;;2.47;;
10191;SDS011;17580;50.850;4.504;2023-08-24T14:23:29;2.83;;;2.60;;
10191;SDS011;17580;50.850;4.504;2023-08-24T14:25:56;3.23;;;2.90;;
10191;SDS011;17580;50.850;4.504;2023-08-24T14:28:24;2.40;;;2.20;;
10191;SDS011;17580;50.850;4.504;2023-08-24T14:30:51;2.93;;;2.73;;
10191;SDS011;17580;50.850;4.504;2023-08-24T14:33:18;2.50;;;2.30;;
10191;SDS011;17580;50.850;4.504;2023-08-24T14:35:51;3.97;;;2.37;;
10191;SDS011;17580;50.850;4.504;2023-08-24T14:38:21;3.13;;;2.47;;
10191;SDS011;17580;50.850;4.504;2023-08-24T14:40:48;2.33;;;2.13;;
10191;SDS011;17580;50.850;4.504;2023-08-24T14:43:15;5.20;;;2.43;;
10191;SDS011;17580;50.850;4.504;2023-08-24T14:45:42;4.03;;;2.40;;
10191;SDS011;17580;50.850;4.504;2023-08-24T14:48:09;2.37;;;1.93;;
10191;SDS011;17580;50.850;4.504;2023-08-24T14:50:37;2.70;;;2.50;;
10191;SDS011;17580;50.850;4.504;2023-08-24T14:53:04;2.13;;;1.93;;
10191;SDS011;17580;50.850;4.504;2023-08-24T14:55:33;4.47;;;2.17;;